Time;durP1;ratioP1;P1;durP2;ratioP2;P2;SDS_P1;SDS_P2;PMS_P1;PMS_P2;Temp;Humidity;BMP_temperature;BMP_pressure;BME280_temperature;BME280_humidity;BME280_pressure;Samples;Min_cycle;Max_cycle;Signal;HPM_P1;HPM_P2
2023/08/14 00:01:01;;;;;;;0.10;0.10;;;;;;;13.73;100.00;101454.31;5096291;28;20039;-48
2023/08/14 00:03:26;;;;;;;0.10;0.10;;;;;;;13.79;100.00;101452.75;5095970;28;20072;-50
2023/08/14 00:05:52;;;;;;;0.10;0.10;;;;;;;13.77;100.00;101446.63;5095222;28;20028;-50
2023/08/14 00:08:19;;;;;;;0.10;0.10;;;;;;;13.82;100.00;101452.81;5096177;28;20028;-49
2023/08/14 00:10:44;;;;;;;0.10;0.10;;;;;;;13.99;100.00;101447.19;5095759;28;20580;-49
2023/08/14 00:13:10;;;;;;;0.10;0.10;;;;;;;13.86;100.00;101452.91;5095109;28;20549;-50
2023/08/14 00:15:35;;;;;;;0.10;0.10;;;;;;;13.84;100.00;101458.06;5095736;28;20016;-47
2023/08/14 00:18:00;;;;;;;0.10;0.10;;;;;;;13.76;100.00;101449.19;5095879;28;20076;-49
2023/08/14 00:20:26;;;;;;;0.10;0.10;;;;;;;13.68;100.00;101448.97;5094907;28;20406;-48
2023/08/14 00:22:51;;;;;;;0.10;0.10;;;;;;;13.75;100.00;101457.78;5095805;28;20024;-49
2023/08/14 00:25:16;;;;;;;0.10;0.10;;;;;;;13.69;100.00;101450.75;5095545;28;20039;-50
2023/08/14 00:27:41;;;;;;;0.10;0.10;;;;;;;13.64;100.00;101447.16;5094536;28;20032;-50
2023/08/14 00:30:07;;;;;;;0.10;0.10;;;;;;;13.66;100.00;101445.50;5095473;28;20372;-50
2023/08/14 00:32:33;;;;;;;0.10;0.10;;;;;;;13.70;100.00;101438.66;5094912;28;20115;-48
2023/08/14 00:34:58;;;;;;;0.10;0.10;;;;;;;13.64;100.00;101440.25;5094441;28;20139;-49
2023/08/14 00:37:39;;;;;;;0.10;0.10;;;;;;;13.63;100.00;101437.63;5095048;28;20028;-49
2023/08/14 00:40:06;;;;;;;0.10;0.10;;;;;;;13.63;100.00;101445.41;5094626;28;20020;-49
2023/08/14 00:42:32;;;;;;;0.10;0.10;;;;;;;13.60;100.00;101442.75;5094966;28;20030;-50
2023/08/14 00:44:57;;;;;;;0.10;0.10;;;;;;;13.64;100.00;101447.16;5094954;28;20139;-50
2023/08/14 00:47:22;;;;;;;0.10;0.10;;;;;;;13.57;100.00;101442.63;5094179;28;20031;-47
2023/08/14 00:49:48;;;;;;;0.10;0.10;;;;;;;13.55;100.00;101439.16;5095360;28;20024;-49
2023/08/14 00:52:13;;;;;;;0.10;0.10;;;;;;;13.53;100.00;101436.53;5095344;28;20028;-50
2023/08/14 00:54:39;;;;;;;0.10;0.10;;;;;;;13.45;100.00;101438.91;5094166;28;20122;-49
2023/08/14 00:57:07;;;;;;;0.10;0.10;;;;;;;13.43;100.00;101435.38;5095159;28;20085;-45
2023/08/14 00:59:33;;;;;;;0.10;0.10;;;;;;;13.48;100.00;101440.69;5094913;28;20036;-49
2023/08/14 01:01:59;;;;;;;0.10;0.10;;;;;;;13.45;100.00;101433.72;5094285;28;20031;-47
2023/08/14 01:04:24;;;;;;;0.10;0.10;;;;;;;13.42;100.00;101433.63;5094718;28;20032;-48
2023/08/14 01:06:50;;;;;;;0.10;0.10;;;;;;;13.40;100.00;101427.53;5094952;28;20040;-48
2023/08/14 01:09:15;;;;;;;0.10;0.10;;;;;;;13.39;100.00;101433.56;5094036;28;20064;-50
2023/08/14 01:12:37;;;;;;;0.10;0.10;;;;;;;13.45;100.00;101430.25;5094412;28;20020;-50
2023/08/14 01:15:08;;;;;;;0.10;0.10;;;;;;;13.33;100.00;101423.00;5059145;28;20059;-48
2023/08/14 01:17:35;;;;;;;0.10;0.10;;;;;;;13.25;100.00;101429.69;5094056;28;20032;-47
2023/08/14 01:20:04;;;;;;;0.08;0.08;;;;;;;13.28;100.00;101417.66;5094721;28;20361;-50
2023/08/14 01:23:00;;;;;;;0.10;0.10;;;;;;;13.28;100.00;101420.25;5093703;28;20032;-49
2023/08/14 01:25:33;;;;;;;0.10;0.10;;;;;;;13.21;100.00;101414.88;5094133;28;20542;-48
2023/08/14 01:28:01;;;;;;;0.10;0.10;;;;;;;13.21;100.00;101415.75;5094427;28;20020;-48
2023/08/14 01:30:27;;;;;;;;;;;;;;;13.31;100.00;101414.28;5093999;28;20023;-46
2023/08/14 01:32:53;;;;;;;0.10;0.10;;;;;;;13.17;100.00;101406.16;5094504;28;19912;-47
2023/08/14 01:35:26;;;;;;;0.10;0.10;;;;;;;13.04;100.00;101402.34;5094348;28;20020;-50
2023/08/14 01:37:54;;;;;;;0.10;0.10;;;;;;;13.02;100.00;101406.59;5093715;28;20103;-48
2023/08/14 01:40:35;;;;;;;0.10;0.10;;;;;;;12.99;100.00;101404.81;5094271;28;20067;-48
2023/08/14 01:43:23;;;;;;;0.10;0.10;;;;;;;13.00;100.00;101403.06;5094371;28;20063;-48
2023/08/14 01:45:49;;;;;;;0.10;0.10;;;;;;;12.96;100.00;101401.25;5092493;28;20123;-48
2023/08/14 01:48:15;;;;;;;0.10;0.10;;;;;;;12.92;100.00;101391.66;5094201;28;20035;-47
2023/08/14 01:50:41;;;;;;;0.10;0.10;;;;;;;12.95;100.00;101384.84;5093047;28;20012;-49
2023/08/14 01:53:07;;;;;;;0.10;0.10;;;;;;;12.97;100.00;101379.72;5093971;28;20104;-49
2023/08/14 01:55:32;;;;;;;0.10;0.10;;;;;;;12.92;100.00;101381.28;5093970;28;20099;-45
2023/08/14 01:57:58;;;;;;;0.10;0.10;;;;;;;12.97;100.00;101379.72;5093334;28;20375;-44
2023/08/14 02:00:23;;;;;;;0.00;0.00;;;;;;;12.89;100.00;101382.09;5093549;28;20028;-49
2023/08/14 02:02:49;;;;;;;0.10;0.10;;;;;;;12.92;100.00;101378.72;5093936;28;20016;-48
2023/08/14 02:05:14;;;;;;;0.10;0.10;;;;;;;12.94;100.00;101366.72;5093101;28;20031;-47
2023/08/14 02:07:40;;;;;;;0.10;0.10;;;;;;;12.97;100.00;101371.94;5093432;28;20020;-48
2023/08/14 02:10:05;;;;;;;0.10;0.10;;;;;;;12.97;100.00;101371.94;5093952;28;20095;-45
2023/08/14 02:12:31;;;;;;;0.10;0.10;;;;;;;13.01;100.00;101363.44;5092455;28;20023;-50
2023/08/14 02:14:57;;;;;;;0.10;0.10;;;;;;;13.01;100.00;101372.09;5093902;28;20020;-49
2023/08/14 02:17:22;;;;;;;0.10;0.10;;;;;;;12.99;100.00;101370.31;5093689;28;20073;-44
2023/08/14 02:19:48;;;;;;;0.10;0.10;;;;;;;13.07;100.00;101371.38;5092839;28;20384;-50
2023/08/14 02:22:13;;;;;;;0.10;0.10;;;;;;;12.98;100.00;101363.38;5093464;28;20080;-48
2023/08/14 02:24:39;;;;;;;0.10;0.10;;;;;;;12.98;100.00;101359.06;5092965;28;20379;-49
2023/08/14 02:27:04;;;;;;;0.10;0.10;;;;;;;12.88;100.00;101357.03;5092840;28;20032;-50
2023/08/14 02:29:29;;;;;;;0.10;0.10;;;;;;;12.92;100.00;101353.69;5093114;28;20016;-50
2023/08/14 02:31:54;;;;;;;0.10;0.10;;;;;;;12.83;100.00;101359.53;5093339;28;20026;-49
2023/08/14 02:34:49;;;;;;;0.10;0.10;;;;;;;12.84;100.00;101360.38;5092496;28;20032;-49
2023/08/14 02:37:16;;;;;;;0.10;0.10;;;;;;;12.77;100.00;101346.41;5093494;28;20077;-48
2023/08/14 02:39:42;;;;;;;0.10;0.10;;;;;;;12.78;100.00;101337.81;5092119;28;20455;-49
2023/08/14 02:42:08;;;;;;;0.10;0.10;;;;;;;12.84;100.00;101348.31;5093274;28;20043;-47
2023/08/14 02:44:34;;;;;;;0.00;0.00;;;;;;;12.76;100.00;101347.22;5092544;28;20040;-47
2023/08/14 02:47:00;;;;;;;0.10;0.10;;;;;;;12.71;100.00;101343.63;5092418;28;20020;-48
2023/08/14 02:49:26;;;;;;;0.10;0.10;;;;;;;12.65;100.00;101343.44;5092674;28;20101;-49
2023/08/14 02:51:52;;;;;;;0.10;0.10;;;;;;;12.59;100.00;101348.44;5093277;28;20059;-50
2023/08/14 02:54:17;;;;;;;0.10;0.10;;;;;;;12.61;100.00;101341.63;5092440;28;20027;-49
2023/08/14 02:56:43;;;;;;;0.10;0.10;;;;;;;12.64;100.00;101347.75;5092478;28;20016;-49
2023/08/14 02:59:08;;;;;;;0.10;0.10;;;;;;;12.57;100.00;101345.81;5093084;28;20064;-49
2023/08/14 03:01:33;;;;;;;0.10;0.10;;;;;;;12.54;100.00;101348.31;5092011;28;20027;-49
2023/08/14 03:03:59;;;;;;;0.10;0.10;;;;;;;12.56;100.00;101344.06;5092880;28;20024;-48
2023/08/14 03:06:24;;;;;;;0.10;0.10;;;;;;;12.57;100.00;101343.22;5092922;28;20032;-47
2023/08/14 03:08:50;;;;;;;0.10;0.10;;;;;;;12.55;100.00;101349.19;5092097;28;20030;-50
2023/08/14 03:11:16;;;;;;;0.10;0.10;;;;;;;12.51;100.00;101350.78;5092993;28;20036;-49
2023/08/14 03:13:41;;;;;;;0.10;0.10;;;;;;;12.45;100.00;101340.28;5092473;28;20027;-50
2023/08/14 03:16:07;;;;;;;0.10;0.10;;;;;;;12.38;100.00;101339.22;5092163;28;20036;-48
2023/08/14 03:18:33;;;;;;;0.10;0.10;;;;;;;12.41;100.00;101347.06;5092532;28;20073;-48
2023/08/14 03:20:58;;;;;;;0.10;0.10;;;;;;;12.42;100.00;101346.25;5092942;28;20391;-49
2023/08/14 03:23:23;;;;;;;0.10;0.10;;;;;;;12.60;100.00;101352.78;5091964;28;20081;-49
2023/08/14 03:25:49;;;;;;;0.10;0.10;;;;;;;12.53;100.00;101362.06;5092803;28;20028;-49
2023/08/14 03:28:14;;;;;;;0.10;0.10;;;;;;;12.62;100.00;101359.75;5092771;28;20024;-49
2023/08/14 03:30:41;;;;;;;0.10;0.10;;;;;;;12.59;100.00;101361.38;5091778;28;20020;-50
2023/08/14 03:33:07;;;;;;;0.20;0.20;;;;;;;12.58;100.00;101351.88;5092821;28;20051;-50
2023/08/14 03:35:32;;;;;;;0.10;0.10;;;;;;;12.55;100.00;101344.00;5092613;28;20494;-48
2023/08/14 03:37:57;;;;;;;0.17;0.17;;;;;;;12.51;100.00;101340.47;5091898;28;20028;-48
2023/08/14 03:40:23;;;;;;;0.10;0.10;;;;;;;12.41;100.00;101336.75;5092395;28;20017;-46
2023/08/14 03:42:48;;;;;;;0.10;0.10;;;;;;;12.34;100.00;101342.53;5092516;28;20020;-49
2023/08/14 03:45:13;;;;;;;0.10;0.10;;;;;;;12.34;100.00;101347.72;5091594;28;20050;-48
2023/08/14 03:47:39;;;;;;;0.10;0.10;;;;;;;12.42;100.00;101351.44;5092408;28;20027;-48
2023/08/14 03:50:05;;;;;;;0.10;0.10;;;;;;;12.37;100.00;101350.41;5091941;28;20016;-49
2023/08/14 03:52:30;;;;;;;0.10;0.10;;;;;;;12.42;100.00;101351.44;5092501;28;20028;-49
2023/08/14 03:54:55;;;;;;;0.10;0.10;;;;;;;12.47;100.00;101351.53;5092697;28;20115;-50
2023/08/14 03:57:21;;;;;;;0.10;0.10;;;;;;;12.54;100.00;101350.91;5091891;28;20022;-48
2023/08/14 03:59:46;;;;;;;0.10;0.10;;;;;;;12.62;100.00;101353.72;5092229;28;20024;-50
2023/08/14 04:02:12;;;;;;;0.10;0.10;;;;;;;12.68;100.00;101348.72;5092405;28;20104;-49
2023/08/14 04:04:37;;;;;;;0.10;0.10;;;;;;;12.88;100.00;101340.66;5091155;28;20059;-45
2023/08/14 04:07:02;;;;;;;0.20;0.20;;;;;;;12.98;100.00;101343.53;5092377;28;20024;-49
2023/08/14 04:09:28;;;;;;;0.10;0.10;;;;;;;12.90;100.00;101350.22;5094716;28;20069;-49
2023/08/14 04:11:53;;;;;;;0.10;0.10;;;;;;;12.86;100.00;101340.63;5095194;28;20020;-49
2023/08/14 04:14:18;;;;;;;0.10;0.10;;;;;;;12.82;100.00;101342.25;5095919;28;20544;-50
2023/08/14 04:16:44;;;;;;;0.10;0.10;;;;;;;12.70;100.00;101343.59;5095443;28;20031;-47
2023/08/14 04:19:15;;;;;;;0.10;0.10;;;;;;;12.71;100.00;101341.03;5094954;28;20064;-45
2023/08/14 04:21:41;;;;;;;0.10;0.10;;;;;;;12.68;100.00;101334.06;5095652;28;20016;-45
2023/08/14 04:24:07;;;;;;;0.10;0.10;;;;;;;12.66;100.00;101337.44;5095761;28;20077;-50
2023/08/14 04:26:33;;;;;;;0.10;0.10;;;;;;;12.62;100.00;101327.84;5094631;28;20109;-46
2023/08/14 04:28:58;;;;;;;0.10;0.10;;;;;;;12.66;100.00;101329.69;5095534;28;20468;-49
2023/08/14 04:31:23;;;;;;;0.10;0.10;;;;;;;12.61;100.00;101326.09;5095172;28;20463;-49
2023/08/14 04:33:49;;;;;;;0.10;0.10;;;;;;;12.57;100.00;101321.69;5094972;28;20024;-45
2023/08/14 04:36:14;;;;;;;0.00;0.00;;;;;;;12.58;100.00;101329.47;5095630;28;20024;-51
2023/08/14 04:38:39;;;;;;;0.10;0.10;;;;;;;12.57;100.00;101326.84;5095314;28;20031;-45
2023/08/14 04:41:05;;;;;;;0.10;0.10;;;;;;;12.61;100.00;101321.78;5094736;28;20059;-47
2023/08/14 04:43:31;;;;;;;0.20;0.20;;;;;;;12.65;100.00;101322.75;5094820;28;20126;-48
2023/08/14 04:46:07;;;;;;;0.10;0.10;;;;;;;12.67;100.00;101315.94;5095155;28;20036;-44
2023/08/14 04:48:32;;;;;;;0.10;0.10;;;;;;;12.68;100.00;101320.28;5094616;28;20019;-47
2023/08/14 04:50:57;;;;;;;0.10;0.10;;;;;;;12.74;100.00;101312.69;5095304;28;20031;-49
2023/08/14 04:53:23;;;;;;;0.25;0.20;;;;;;;12.74;100.00;101312.69;5094236;28;20086;-44
2023/08/14 04:55:48;;;;;;;0.10;0.10;;;;;;;12.79;100.00;101316.25;5095170;28;20570;-49
2023/08/14 04:58:13;;;;;;;0.10;0.10;;;;;;;12.82;100.00;101305.13;5094905;28;20035;-50
2023/08/14 05:00:39;;;;;;;0.10;0.10;;;;;;;12.82;100.00;101305.13;5094003;28;20058;-49
2023/08/14 05:03:04;;;;;;;0.10;0.10;;;;;;;12.83;100.00;101294.84;5094838;28;20028;-48
2023/08/14 05:05:29;;;;;;;0.10;0.10;;;;;;;12.90;100.00;101300.16;5094706;28;20016;-50
2023/08/14 05:07:55;;;;;;;0.10;0.10;;;;;;;12.98;100.00;101293.50;5094116;28;20036;-49
2023/08/14 05:10:20;;;;;;;0.10;0.10;;;;;;;13.02;100.00;101290.16;5094750;28;20096;-44
2023/08/14 05:12:45;;;;;;;0.10;0.10;;;;;;;13.12;100.00;101293.88;5094480;28;20036;-51
2023/08/14 05:15:11;;;;;;;0.10;0.10;;;;;;;13.16;100.00;101293.13;5093975;28;20027;-48
2023/08/14 05:17:36;;;;;;;0.10;0.10;;;;;;;13.25;100.00;101285.59;5094538;28;20027;-47
2023/08/14 05:20:02;;;;;;;0.10;0.10;;;;;;;13.37;100.00;101287.63;5094429;28;20028;-46
2023/08/14 05:22:28;;;;;;;0.10;0.10;;;;;;;13.55;100.00;101291.53;5093507;28;20478;-51
2023/08/14 05:24:53;;;;;;;0.10;0.10;;;;;;;13.70;100.00;101289.31;5094510;28;20103;-47
2023/08/14 05:27:18;;;;;;;0.10;0.10;;;;;;;13.89;100.00;101294.91;5094185;28;20028;-44
2023/08/14 05:29:46;;;;;;;0.10;0.10;;;;;;;14.00;100.00;101294.31;5093309;28;20145;-50
2023/08/14 05:32:12;;;;;;;0.20;0.20;;;;;;;14.13;100.00;101294.59;5094541;28;20020;-45
2023/08/14 05:34:37;;;;;;;0.10;0.10;;;;;;;14.25;100.00;101289.66;5094145;28;20032;-46
2023/08/14 05:37:02;;;;;;;0.10;0.10;;;;;;;14.36;100.00;101296.78;5093677;28;20028;-49
2023/08/14 05:39:28;;;;;;;0.10;0.10;;;;;;;14.40;100.00;101299.50;5093851;28;20024;-45
2023/08/14 05:41:53;;;;;;;0.10;0.10;;;;;;;14.48;100.00;101300.53;5094055;28;20031;-44
2023/08/14 05:44:19;;;;;;;0.10;0.10;;;;;;;14.56;100.00;101299.81;5092970;28;20141;-49
2023/08/14 05:46:44;;;;;;;0.10;0.10;;;;;;;14.57;100.00;101304.16;5093843;28;20044;-46
2023/08/14 05:49:10;;;;;;;0.10;0.10;;;;;;;14.64;100.00;101308.66;5094134;28;20035;-45
2023/08/14 05:51:35;;;;;;;0.10;0.10;;;;;;;14.70;100.00;101311.38;5093021;28;20077;-45
2023/08/14 05:54:00;;;;;;;0.10;0.10;;;;;;;14.72;100.00;101309.69;5094021;28;20453;-49
2023/08/14 05:56:26;;;;;;;0.13;0.10;;;;;;;14.78;100.00;101312.44;5093788;28;20020;-50
2023/08/14 05:58:51;;;;;;;0.10;0.10;;;;;;;14.83;100.00;101320.28;5093029;28;20089;-47
2023/08/14 06:01:16;;;;;;;0.10;0.10;;;;;;;14.91;100.00;101328.22;5093559;28;20476;-50
2023/08/14 06:03:42;;;;;;;0.10;0.10;;;;;;;14.95;100.00;101330.03;5092744;28;20036;-47
2023/08/14 06:06:07;;;;;;;0.10;0.10;;;;;;;14.98;100.00;101333.56;5094010;28;20107;-50
2023/08/14 06:08:33;;;;;;;0.10;0.10;;;;;;;15.03;100.00;101332.75;5093402;28;20027;-45
2023/08/14 06:10:58;;;;;;;0.10;0.10;;;;;;;15.08;100.00;101329.44;5092927;28;20464;-46
2023/08/14 06:13:23;;;;;;;0.10;0.10;;;;;;;15.15;100.00;101333.88;5093289;28;20119;-45
2023/08/14 06:15:49;;;;;;;0.10;0.10;;;;;;;15.25;100.00;101347.03;5093675;28;20089;-46
2023/08/14 06:18:14;;;;;;;0.10;0.10;;;;;;;15.25;100.00;101344.44;5093024;28;20110;-46
2023/08/14 06:20:39;;;;;;;0.10;0.10;;;;;;;15.34;100.00;101339.41;5093385;28;20485;-49
2023/08/14 06:23:05;;;;;;;0.10;0.10;;;;;;;15.33;100.00;101335.06;5093665;28;20107;-45
2023/08/14 06:25:31;;;;;;;0.10;0.10;;;;;;;15.43;100.00;101328.31;5092572;28;20111;-46
2023/08/14 06:27:57;;;;;;;0.10;0.10;;;;;;;15.45;100.00;101327.50;5093277;28;20069;-49
2023/08/14 06:30:23;;;;;;;0.10;0.10;;;;;;;15.51;100.00;101326.72;5092929;28;20020;-49
2023/08/14 06:32:49;;;;;;;0.10;0.10;;;;;;;15.76;100.00;101317.63;5092203;28;20116;-47
2023/08/14 06:35:14;;;;;;;0.10;0.10;;;;;;;15.82;100.00;101321.19;5093578;28;20056;-50
2023/08/14 06:37:40;;;;;;;0.00;0.00;;;;;;;16.09;100.00;101316.38;5092910;28;20093;-49
2023/08/14 06:40:06;;;;;;;0.10;0.10;;;;;;;16.29;100.00;101323.59;5092560;28;20032;-46
2023/08/14 06:42:31;;;;;;;0.10;0.10;;;;;;;16.34;100.00;101321.91;5092887;28;20464;-44
2023/08/14 06:44:57;;;;;;;0.10;0.10;;;;;;;16.54;100.00;101323.91;5092723;28;20036;-49
2023/08/14 06:47:22;;;;;;;0.10;0.10;;;;;;;16.54;100.00;101318.69;5092316;28;20020;-46
2023/08/14 06:49:47;;;;;;;0.00;0.00;;;;;;;16.60;100.00;101314.47;5093243;28;20420;-49
2023/08/14 06:52:13;;;;;;;0.10;0.10;;;;;;;16.62;100.00;101309.28;5093288;28;20043;-48
2023/08/14 06:54:39;;;;;;;0.10;0.10;;;;;;;16.72;100.00;101318.94;5091655;28;20035;-44
2023/08/14 06:57:04;;;;;;;0.10;0.10;;;;;;;16.65;100.00;101317.09;5092388;28;20085;-46
2023/08/14 06:59:30;;;;;;;0.10;0.10;;;;;;;16.73;100.00;101317.19;5092489;28;20024;-49
2023/08/14 07:01:56;;;;;;;0.10;0.10;;;;;;;16.89;100.00;101313.06;5091826;28;20095;-50
2023/08/14 07:04:22;;;;;;;0.10;0.10;;;;;;;17.16;100.00;101303.78;5092921;28;20043;-47
2023/08/14 07:06:47;;;;;;;0.10;0.10;;;;;;;17.35;100.00;101313.56;5092424;28;20383;-46
2023/08/14 07:09:16;;;;;;;0.00;0.00;;;;;;;17.61;100.00;101318.97;5092273;28;20488;-53
2023/08/14 07:11:41;;;;;;;0.10;0.10;;;;;;;17.74;100.00;101313.84;5092171;28;20463;-44
2023/08/14 07:14:07;;;;;;;0.10;0.10;;;;;;;17.92;100.00;101313.09;5091985;28;20043;-44
2023/08/14 07:16:33;;;;;;;0.10;0.10;;;;;;;17.95;100.00;101313.16;5092687;28;20046;-46
2023/08/14 07:18:58;;;;;;;0.10;0.10;;;;;;;18.00;100.00;101319.28;5092882;28;20383;-44
2023/08/14 07:21:23;;;;;;;0.10;0.10;;;;;;;18.12;100.00;101315.88;5091709;28;20454;-50
2023/08/14 07:23:49;;;;;;;0.10;0.10;;;;;;;18.19;100.00;101312.44;5092605;28;20024;-46
2023/08/14 07:26:15;;;;;;;0.00;0.00;;;;;;;18.21;100.00;101308.09;5092560;28;20028;-45
2023/08/14 07:28:40;;;;;;;0.10;0.10;;;;;;;18.27;100.00;101317.72;5091466;28;20024;-49
2023/08/14 07:31:07;;;;;;;0.10;0.10;;;;;;;18.23;100.00;101311.59;5092575;28;20024;-46
2023/08/14 07:33:32;;;;;;;0.22;0.10;;;;;;;18.26;100.00;101315.97;5092458;28;20047;-46
2023/08/14 07:35:59;;;;;;;0.08;0.08;;;;;;;18.33;100.00;101322.94;5091983;28;20027;-51
2023/08/14 07:38:27;;;;;;;0.00;0.00;;;;;;;18.26;100.00;101329.00;5092421;28;20456;-50
2023/08/14 07:40:54;;;;;;;0.00;0.00;;;;;;;18.21;100.00;101335.94;5092602;28;20044;-50
2023/08/14 07:43:19;;;;;;;0.10;0.10;;;;;;;18.22;100.00;101342.91;5092310;28;20070;-50
2023/08/14 07:45:45;;;;;;;0.00;0.00;;;;;;;18.32;100.00;101339.47;5096132;28;20032;-48
2023/08/14 07:48:11;;;;;;;0.03;0.03;;;;;;;18.33;100.00;101346.41;5097069;28;20032;-46
2023/08/14 07:50:36;;;;;;;0.10;0.10;;;;;;;18.37;100.00;101343.00;5095005;28;20024;-45
2023/08/14 07:53:02;;;;;;;0.00;0.00;;;;;;;18.53;100.00;101338.69;5096147;28;20089;-45
2023/08/14 07:55:27;;;;;;;0.00;0.00;;;;;;;18.71;100.00;101332.69;5095877;28;20060;-47
2023/08/14 07:57:52;;;;;;;0.03;0.03;;;;;;;18.87;100.00;101330.97;5095246;28;20052;-47
2023/08/14 08:00:18;;;;;;;0.05;0.05;;;;;;;19.07;100.00;101338.91;5096303;28;20080;-51
2023/08/14 08:02:43;;;;;;;0.00;0.00;;;;;;;19.11;100.00;101337.19;5095729;28;20020;-46
2023/08/14 08:05:09;;;;;;;0.00;0.00;;;;;;;19.17;100.00;101331.97;5095400;28;20028;-46
2023/08/14 08:07:34;;;;;;;0.00;0.00;;;;;;;19.33;100.00;101335.47;5095920;28;20153;-48
2023/08/14 08:10:01;;;;;;;0.08;0.08;;;;;;;19.47;100.00;101340.72;5096012;28;20391;-51
2023/08/14 08:12:26;;;;;;;0.00;0.00;;;;;;;19.61;100.00;101332.84;5094940;28;20021;-50
2023/08/14 08:14:52;;;;;;;0.10;0.10;;;;;;;19.63;100.00;101335.50;5095811;28;20039;-47
2023/08/14 08:17:17;;;;;;;0.00;0.00;;;;;;;19.82;100.00;101323.28;5095023;28;20020;-49
2023/08/14 08:19:42;;;;;;;0.00;0.00;;;;;;;19.93;100.00;101329.38;5095749;28;20023;-45
2023/08/14 08:22:08;;;;;;;0.10;0.10;;;;;;;20.03;100.00;101323.25;5095675;28;20479;-51
2023/08/14 08:24:33;;;;;;;0.10;0.10;;;;;;;20.23;100.00;101325.84;5094536;28;20071;-45
2023/08/14 08:27:01;;;;;;;0.00;0.00;;;;;;;20.34;99.98;101320.56;5095534;28;20028;-45
2023/08/14 08:29:26;;;;;;;0.10;0.10;;;;;;;20.44;95.78;101320.53;5095452;28;20031;-45
2023/08/14 08:31:51;;;;;;;0.00;0.00;;;;;;;20.50;95.03;101316.16;5094759;28;20028;-51
2023/08/14 08:34:17;;;;;;;0.00;0.00;;;;;;;20.58;93.96;101315.22;5095479;28;20020;-51
2023/08/14 08:36:42;;;;;;;0.00;0.00;;;;;;;20.74;94.87;101318.69;5095334;28;20091;-51
2023/08/14 08:39:07;;;;;;;0.10;0.10;;;;;;;20.75;94.71;101309.94;5094861;28;20024;-47
2023/08/14 08:41:38;;;;;;;0.10;0.10;;;;;;;20.80;92.19;101313.41;5095035;28;20027;-51
2023/08/14 08:44:10;;;;;;;0.00;0.00;;;;;;;20.98;94.42;101313.31;5094988;28;20127;-49
2023/08/14 08:46:41;;;;;;;0.00;0.00;;;;;;;21.09;93.50;101309.75;5094356;28;20091;-48
2023/08/14 08:49:08;;;;;;;0.00;0.00;;;;;;;21.26;90.52;101305.25;5095176;28;20506;-46
2023/08/14 08:51:33;;;;;;;0.00;0.00;;;;;;;21.28;87.14;101310.47;5094602;28;20112;-45
2023/08/14 08:53:59;;;;;;;0.05;0.03;;;;;;;21.41;87.62;101306.88;5093729;28;20028;-50
2023/08/14 08:56:26;;;;;;;0.00;0.00;;;;;;;21.52;86.01;101312.03;5094705;28;20487;-49
2023/08/14 08:58:52;;;;;;;0.08;0.08;;;;;;;21.63;86.46;101304.97;5095007;28;20089;-46
2023/08/14 09:01:18;;;;;;;0.00;0.00;;;;;;;21.74;85.07;101301.38;5094282;28;20031;-50
2023/08/14 09:03:45;;;;;;;0.00;0.00;;;;;;;21.84;85.90;101293.41;5094711;28;20028;-51
2023/08/14 09:06:10;;;;;;;0.00;0.00;;;;;;;21.84;82.00;101293.41;5094664;28;20533;-49
2023/08/14 09:08:35;;;;;;;0.00;0.00;;;;;;;21.92;83.35;101297.72;5093709;28;20040;-46
2023/08/14 09:11:01;;;;;;;0.03;0.03;;;;;;;21.95;81.95;101298.56;5094899;28;20027;-49
2023/08/14 09:13:26;;;;;;;0.00;0.00;;;;;;;22.04;80.80;101301.06;5093894;28;20047;-47
2023/08/14 09:15:52;;;;;;;0.00;0.00;;;;;;;22.24;79.97;101294.72;5094770;28;20532;-46
2023/08/14 09:18:17;;;;;;;0.00;0.00;;;;;;;22.22;75.37;101290.38;5094634;28;20032;-50
2023/08/14 09:20:43;;;;;;;0.00;0.00;;;;;;;22.45;79.57;101292.75;5093553;28;20016;-46
2023/08/14 09:23:12;;;;;;;0.00;0.00;;;;;;;22.54;78.74;101295.25;5094335;28;20379;-47
2023/08/14 09:25:40;;;;;;;0.00;0.00;;;;;;;22.72;77.24;101301.16;5094277;28;20028;-45
2023/08/14 09:28:09;;;;;;;0.00;0.00;;;;;;;22.86;76.60;101301.84;5093799;28;20100;-51
2023/08/14 09:30:36;;;;;;;0.00;0.00;;;;;;;23.11;77.36;101301.47;5094140;28;20024;-51
2023/08/14 09:33:06;;;;;;;0.00;0.00;;;;;;;23.29;74.77;101302.97;5094348;28;20031;-46
2023/08/14 09:35:32;;;;;;;0.00;0.00;;;;;;;23.28;71.62;101307.38;5093190;28;20483;-49
2023/08/14 09:37:58;;;;;;;0.00;0.00;;;;;;;23.22;69.03;101309.22;5094099;28;20066;-45
2023/08/14 09:40:24;;;;;;;0.00;0.00;;;;;;;23.32;65.93;101318.72;5094056;28;20073;-49
2023/08/14 09:42:50;;;;;;;0.00;0.00;;;;;;;23.39;61.89;101324.75;5093428;28;20020;-50
2023/08/14 09:45:23;;;;;;;0.00;0.00;;;;;;;23.39;61.76;101317.69;5093725;28;20048;-50
2023/08/14 09:47:49;;;;;;;0.00;0.00;;;;;;;23.62;61.63;101327.84;5094086;28;20034;-47
2023/08/14 09:50:16;;;;;;;0.00;0.00;;;;;;;23.95;58.83;101315.00;5093221;28;20016;-45
2023/08/14 09:52:45;;;;;;;0.00;0.00;;;;;;;24.14;59.27;101319.91;5093596;28;20520;-51
2023/08/14 09:55:13;;;;;;;0.00;0.00;;;;;;;24.19;56.72;101318.06;5093846;28;20532;-46
2023/08/14 09:57:38;;;;;;;0.00;0.00;;;;;;;24.51;58.74;101308.63;5092892;28;20028;-46
2023/08/14 10:00:04;;;;;;;0.00;0.00;;;;;;;24.68;56.67;101304.81;5093967;28;20149;-49
2023/08/14 10:02:32;;;;;;;0.00;0.00;;;;;;;24.71;51.05;101299.44;5093309;28;20032;-50
2023/08/14 10:05:01;;;;;;;0.00;0.00;;;;;;;24.68;53.97;101292.47;5092811;28;20023;-46
2023/08/14 10:07:27;;;;;;;0.00;0.00;;;;;;;24.74;53.72;101288.81;5092512;28;20066;-51
2023/08/14 10:09:56;;;;;;;0.00;0.00;;;;;;;24.93;52.20;101295.44;5093113;28;20024;-46
2023/08/14 10:12:29;;;;;;;0.00;0.00;;;;;;;25.48;50.84;101287.94;5093689;28;20016;-46
2023/08/14 10:15:07;;;;;;;0.00;0.00;;;;;;;26.11;49.48;101292.50;5093689;28;20047;-49
2023/08/14 10:17:36;;;;;;;0.00;0.00;;;;;;;26.26;47.63;101285.88;5092758;28;20043;-47
2023/08/14 10:20:03;;;;;;;0.00;0.00;;;;;;;26.75;45.55;101280.91;5093608;28;20012;-49
2023/08/14 10:22:32;;;;;;;0.00;0.00;;;;;;;27.08;44.99;101265.75;5093207;28;20034;-49
2023/08/14 10:25:01;;;;;;;0.00;0.00;;;;;;;27.34;42.40;101260.50;5092489;28;20099;-44
2023/08/14 10:27:27;;;;;;;0.00;0.00;;;;;;;27.42;40.80;101259.38;5093117;28;20024;-47
2023/08/14 10:29:53;;;;;;;0.00;0.00;;;;;;;27.43;42.52;101254.94;5093464;28;20103;-49
2023/08/14 10:32:19;;;;;;;0.00;0.00;;;;;;;28.13;41.78;101250.66;5092741;28;20103;-49
2023/08/14 10:34:45;;;;;;;0.00;0.00;;;;;;;28.46;41.25;101252.97;5093038;28;20387;-50
2023/08/14 10:37:43;;;;;;;0.00;0.00;;;;;;;28.89;41.33;101245.94;5093302;28;20032;-49
2023/08/14 10:40:18;;;;;;;0.00;0.00;;;;;;;28.77;38.83;101246.47;5092471;28;20028;-49
2023/08/14 10:42:48;;;;;;;0.00;0.00;;;;;;;28.71;39.00;101244.06;5093030;28;20051;-49
2023/08/14 10:45:17;;;;;;;0.00;0.00;;;;;;;28.58;38.82;101251.59;5092091;28;20415;-50
2023/08/14 10:47:43;;;;;;;0.00;0.00;;;;;;;29.10;38.77;101238.00;5092909;28;20032;-46
2023/08/14 10:50:14;;;;;;;0.00;0.00;;;;;;;29.67;38.02;101246.22;5093198;28;20024;-47
2023/08/14 10:52:43;;;;;;;0.00;0.00;;;;;;;29.11;36.49;101242.41;5091826;28;20039;-49
2023/08/14 10:55:18;;;;;;;0.00;0.00;;;;;;;29.20;36.65;101249.97;5093247;28;20150;-50
2023/08/14 10:57:45;;;;;;;0.00;0.00;;;;;;;29.39;36.68;101243.94;5092759;28;20031;-48
2023/08/14 11:00:24;;;;;;;0.00;0.00;;;;;;;29.73;37.85;101253.94;5092104;28;20028;-48
2023/08/14 11:03:04;;;;;;;0.00;0.00;;;;;;;29.77;37.34;101246.66;5093096;28;20028;-50
2023/08/14 11:05:38;;;;;;;0.00;0.00;;;;;;;29.94;36.80;101251.25;5092526;28;20036;-50
2023/08/14 11:08:06;;;;;;;0.00;0.00;;;;;;;29.84;36.38;101245.47;5092115;28;20479;-50
2023/08/14 11:10:33;;;;;;;0.00;0.00;;;;;;;29.29;37.00;101246.09;5092389;28;20464;-46
2023/08/14 11:12:59;;;;;;;0.00;0.00;;;;;;;29.89;36.84;101247.97;5092570;28;20051;-49
2023/08/14 11:15:25;;;;;;;0.00;0.00;;;;;;;29.98;36.59;101250.19;5092493;28;20070;-50
2023/08/14 11:17:51;;;;;;;0.00;0.00;;;;;;;29.72;36.11;101253.97;5094488;28;20024;-49